sensor_id;sensor_type;location;lat;lon;timestamp;pressure;altitude;pressure_sealevel;temperature;humidity
17260;BME280;8746;49.230;9.220;2024-03-29T00:00:39;98170.25;;;3.99;100.00
17260;BME280;8746;49.230;9.220;2024-03-29T00:03:05;98154.69;;;3.96;100.00
17260;BME280;8746;49.230;9.220;2024-03-29T00:05:32;98152.94;;;3.96;100.00
17260;BME280;8746;49.230;9.220;2024-03-29T00:07:57;98147.75;;;3.96;100.00
17260;BME280;8746;49.230;9.220;2024-03-29T00:10:23;98147.06;;;4.12;100.00
17260;BME280;8746;49.230;9.220;2024-03-29T00:12:48;98137.41;;;4.14;100.00
17260;BME280;8746;49.230;9.220;2024-03-29T00:15:14;98128.00;;;4.10;100.00
17260;BME280;8746;49.230;9.220;2024-03-29T00:17:39;98123.31;;;4.18;100.00
17260;BME280;8746;49.230;9.220;2024-03-29T00:20:05;98121.75;;;4.14;100.00
17260;BME280;8746;49.230;9.220;2024-03-29T00:22:31;98114.97;;;4.10;100.00
17260;BME280;8746;49.230;9.220;2024-03-29T00:24:56;98110.41;;;4.15;100.00
17260;BME280;8746;49.230;9.220;2024-03-29T00:27:21;98106.03;;;4.15;100.00
17260;BME280;8746;49.230;9.220;2024-03-29T00:29:51;98108.00;;;4.10;100.00
17260;BME280;8746;49.230;9.220;2024-03-29T00:32:18;98083.59;;;4.11;100.00
17260;BME280;8746;49.230;9.220;2024-03-29T00:34:44;98089.81;;;4.09;100.00
17260;BME280;8746;49.230;9.220;2024-03-29T00:37:10;98089.25;;;4.21;100.00
17260;BME280;8746;49.230;9.220;2024-03-29T00:39:36;98097.59;;;4.29;100.00
17260;BME280;8746;49.230;9.220;2024-03-29T00:42:01;98087.41;;;4.23;100.00
17260;BME280;8746;49.230;9.220;2024-03-29T00:44:26;98088.38;;;4.21;100.00
17260;BME280;8746;49.230;9.220;2024-03-29T00:46:52;98102.22;;;4.23;100.00
17260;BME280;8746;49.230;9.220;2024-03-29T00:49:17;98104.91;;;4.21;100.00
17260;BME280;8746;49.230;9.220;2024-03-29T00:51:42;98100.13;;;4.31;100.00
17260;BME280;8746;49.230;9.220;2024-03-29T00:54:07;98098.50;;;4.28;100.00
17260;BME280;8746;49.230;9.220;2024-03-29T00:56:33;98093.28;;;4.28;100.00
17260;BME280;8746;49.230;9.220;2024-03-29T00:58:58;98081.00;;;4.30;100.00
17260;BME280;8746;49.230;9.220;2024-03-29T01:01:24;98083.69;;;4.29;100.00
17260;BME280;8746;49.230;9.220;2024-03-29T01:03:50;98081.66;;;4.36;100.00
17260;BME280;8746;49.230;9.220;2024-03-29T01:06:15;98083.06;;;4.43;100.00
17260;BME280;8746;49.230;9.220;2024-03-29T01:08:40;98065.72;;;4.42;100.00
17260;BME280;8746;49.230;9.220;2024-03-29T01:11:06;98050.97;;;4.41;100.00
17260;BME280;8746;49.230;9.220;2024-03-29T01:13:31;98055.28;;;4.42;100.00
17260;BME280;8746;49.230;9.220;2024-03-29T01:15:56;98053.69;;;4.38;100.00
17260;BME280;8746;49.230;9.220;2024-03-29T01:18:21;98056.31;;;4.38;100.00
17260;BME280;8746;49.230;9.220;2024-03-29T01:20:47;98044.97;;;4.39;100.00
17260;BME280;8746;49.230;9.220;2024-03-29T01:23:12;98034.09;;;4.48;100.00
17260;BME280;8746;49.230;9.220;2024-03-29T01:25:37;98050.47;;;4.52;100.00
17260;BME280;8746;49.230;9.220;2024-03-29T01:28:03;98056.63;;;4.51;100.00
17260;BME280;8746;49.230;9.220;2024-03-29T01:30:29;98056.41;;;4.55;100.00
17260;BME280;8746;49.230;9.220;2024-03-29T01:32:55;98044.31;;;4.53;100.00
17260;BME280;8746;49.230;9.220;2024-03-29T01:35:20;98052.66;;;4.61;100.00
17260;BME280;8746;49.230;9.220;2024-03-29T01:37:46;98056.06;;;4.63;100.00
17260;BME280;8746;49.230;9.220;2024-03-29T01:40:11;98054.28;;;4.63;100.00
17260;BME280;8746;49.230;9.220;2024-03-29T01:42:37;98063.81;;;4.64;100.00
17260;BME280;8746;49.230;9.220;2024-03-29T01:45:02;98066.28;;;4.68;100.00
17260;BME280;8746;49.230;9.220;2024-03-29T01:47:28;98061.06;;;4.68;100.00
17260;BME280;8746;49.230;9.220;2024-03-29T01:49:53;98054.84;;;4.70;100.00
17260;BME280;8746;49.230;9.220;2024-03-29T01:52:19;98039.00;;;4.73;100.00
17260;BME280;8746;49.230;9.220;2024-03-29T01:54:45;98031.19;;;4.73;100.00
17260;BME280;8746;49.230;9.220;2024-03-29T01:57:12;98029.34;;;4.75;100.00
17260;BME280;8746;49.230;9.220;2024-03-29T01:59:40;98025.19;;;4.71;100.00
17260;BME280;8746;49.230;9.220;2024-03-29T02:02:05;98012.97;;;4.72;100.00
17260;BME280;8746;49.230;9.220;2024-03-29T02:04:31;97998.09;;;4.74;100.00
17260;BME280;8746;49.230;9.220;2024-03-29T02:06:57;98000.53;;;4.77;100.00
17260;BME280;8746;49.230;9.220;2024-03-29T02:09:22;98001.31;;;4.79;100.00
17260;BME280;8746;49.230;9.220;2024-03-29T02:11:47;98012.47;;;4.82;100.00
17260;BME280;8746;49.230;9.220;2024-03-29T02:14:13;98013.47;;;4.80;100.00
17260;BME280;8746;49.230;9.220;2024-03-29T02:16:38;98010.69;;;4.83;100.00
17260;BME280;8746;49.230;9.220;2024-03-29T02:19:03;98013.94;;;4.88;100.00
17260;BME280;8746;49.230;9.220;2024-03-29T02:21:29;98011.78;;;4.96;100.00
17260;BME280;8746;49.230;9.220;2024-03-29T02:24:06;98016.97;;;4.98;100.00
17260;BME280;8746;49.230;9.220;2024-03-29T02:26:33;98017.78;;;4.98;100.00
17260;BME280;8746;49.230;9.220;2024-03-29T02:29:01;98008.88;;;5.03;100.00
17260;BME280;8746;49.230;9.220;2024-03-29T02:31:27;98012.97;;;5.08;100.00
17260;BME280;8746;49.230;9.220;2024-03-29T02:33:52;98023.34;;;5.10;100.00
17260;BME280;8746;49.230;9.220;2024-03-29T02:36:18;98022.34;;;5.12;100.00
17260;BME280;8746;49.230;9.220;2024-03-29T02:38:43;98028.28;;;5.16;100.00
17260;BME280;8746;49.230;9.220;2024-03-29T02:41:08;98018.59;;;5.18;100.00
17260;BME280;8746;49.230;9.220;2024-03-29T02:43:33;98013.53;;;5.15;100.00
17260;BME280;8746;49.230;9.220;2024-03-29T02:45:59;98015.19;;;5.16;100.00
17260;BME280;8746;49.230;9.220;2024-03-29T02:48:24;98017.91;;;5.14;100.00
17260;BME280;8746;49.230;9.220;2024-03-29T02:50:50;98007.66;;;5.10;100.00
17260;BME280;8746;49.230;9.220;2024-03-29T02:53:15;98020.72;;;5.10;100.00
17260;BME280;8746;49.230;9.220;2024-03-29T02:55:41;98022.44;;;5.11;100.00
17260;BME280;8746;49.230;9.220;2024-03-29T02:58:06;98031.19;;;5.10;100.00
17260;BME280;8746;49.230;9.220;2024-03-29T03:00:32;98017.38;;;5.08;100.00
17260;BME280;8746;49.230;9.220;2024-03-29T03:02:58;98036.09;;;5.16;100.00
17260;BME280;8746;49.230;9.220;2024-03-29T03:05:23;98030.75;;;5.19;100.00
17260;BME280;8746;49.230;9.220;2024-03-29T03:07:49;98038.59;;;5.19;100.00
17260;BME280;8746;49.230;9.220;2024-03-29T03:10:32;98032.28;;;5.23;100.00
17260;BME280;8746;49.230;9.220;2024-03-29T03:13:16;98035.34;;;5.14;100.00
17260;BME280;8746;49.230;9.220;2024-03-29T03:15:42;98046.44;;;5.19;100.00
17260;BME280;8746;49.230;9.220;2024-03-29T03:18:07;98048.13;;;5.20;100.00
17260;BME280;8746;49.230;9.220;2024-03-29T03:20:32;98043.91;;;5.18;100.00
17260;BME280;8746;49.230;9.220;2024-03-29T03:22:58;98031.75;;;5.17;100.00
17260;BME280;8746;49.230;9.220;2024-03-29T03:25:27;98038.16;;;5.28;100.00
17260;BME280;8746;49.230;9.220;2024-03-29T03:27:52;98031.44;;;5.23;100.00
17260;BME280;8746;49.230;9.220;2024-03-29T03:30:18;98034.13;;;5.21;100.00
17260;BME280;8746;49.230;9.220;2024-03-29T03:32:43;98035.66;;;5.25;100.00
17260;BME280;8746;49.230;9.220;2024-03-29T03:35:09;98044.22;;;5.29;100.00
17260;BME280;8746;49.230;9.220;2024-03-29T03:37:34;98044.59;;;5.21;100.00
17260;BME280;8746;49.230;9.220;2024-03-29T03:39:59;98037.81;;;5.17;100.00
17260;BME280;8746;49.230;9.220;2024-03-29T03:42:27;98065.34;;;5.24;100.00
17260;BME280;8746;49.230;9.220;2024-03-29T03:44:53;98034.13;;;5.21;100.00
17260;BME280;8746;49.230;9.220;2024-03-29T03:47:18;98032.78;;;4.95;100.00
17260;BME280;8746;49.230;9.220;2024-03-29T03:49:43;98117.38;;;4.92;100.00
17260;BME280;8746;49.230;9.220;2024-03-29T03:52:09;98117.31;;;4.94;100.00
17260;BME280;8746;49.230;9.220;2024-03-29T03:54:34;98126.19;;;5.09;100.00
17260;BME280;8746;49.230;9.220;2024-03-29T03:57:00;98074.88;;;5.08;100.00
17260;BME280;8746;49.230;9.220;2024-03-29T03:59:25;98111.53;;;5.78;100.00
17260;BME280;8746;49.230;9.220;2024-03-29T04:01:50;98115.94;;;5.77;100.00
17260;BME280;8746;49.230;9.220;2024-03-29T04:04:17;98104.69;;;5.75;100.00
17260;BME280;8746;49.230;9.220;2024-03-29T04:06:43;98108.84;;;5.80;100.00
17260;BME280;8746;49.230;9.220;2024-03-29T04:09:08;98092.13;;;5.82;100.00
17260;BME280;8746;49.230;9.220;2024-03-29T04:11:33;98067.28;;;5.73;100.00
17260;BME280;8746;49.230;9.220;2024-03-29T04:13:59;98048.50;;;5.65;100.00
17260;BME280;8746;49.230;9.220;2024-03-29T04:16:24;98042.91;;;5.73;100.00
17260;BME280;8746;49.230;9.220;2024-03-29T04:18:50;98048.22;;;5.71;100.00
17260;BME280;8746;49.230;9.220;2024-03-29T04:21:15;98029.59;;;5.77;100.00
17260;BME280;8746;49.230;9.220;2024-03-29T04:23:40;98023.50;;;5.77;100.00
17260;BME280;8746;49.230;9.220;2024-03-29T04:26:05;98015.13;;;5.70;100.00
17260;BME280;8746;49.230;9.220;2024-03-29T04:28:31;98010.09;;;5.83;100.00
17260;BME280;8746;49.230;9.220;2024-03-29T04:30:58;97994.84;;;5.91;100.00
17260;BME280;8746;49.230;9.220;2024-03-29T04:33:24;97989.53;;;5.93;100.00
17260;BME280;8746;49.230;9.220;2024-03-29T04:35:56;97986.63;;;5.99;100.00
17260;BME280;8746;49.230;9.220;2024-03-29T04:38:22;97988.06;;;6.05;100.00
17260;BME280;8746;49.230;9.220;2024-03-29T04:40:53;97992.84;;;6.14;100.00
17260;BME280;8746;49.230;9.220;2024-03-29T04:43:21;97992.84;;;6.14;100.00
17260;BME280;8746;49.230;9.220;2024-03-29T04:45:47;98003.31;;;6.14;100.00
17260;BME280;8746;49.230;9.220;2024-03-29T04:48:13;97994.00;;;6.08;100.00
17260;BME280;8746;49.230;9.220;2024-03-29T04:50:39;97983.00;;;6.18;100.00
17260;BME280;8746;49.230;9.220;2024-03-29T04:53:04;97992.38;;;6.06;100.00
17260;BME280;8746;49.230;9.220;2024-03-29T04:55:30;98003.31;;;5.97;100.00
17260;BME280;8746;49.230;9.220;2024-03-29T04:57:56;98013.94;;;5.93;100.00
17260;BME280;8746;49.230;9.220;2024-03-29T05:00:21;98018.53;;;5.88;100.00
17260;BME280;8746;49.230;9.220;2024-03-29T05:02:47;98036.81;;;5.90;100.00
17260;BME280;8746;49.230;9.220;2024-03-29T05:05:12;98026.34;;;5.90;100.00
17260;BME280;8746;49.230;9.220;2024-03-29T05:07:38;98027.03;;;5.93;100.00
17260;BME280;8746;49.230;9.220;2024-03-29T05:10:03;98018.25;;;5.94;100.00
17260;BME280;8746;49.230;9.220;2024-03-29T05:12:32;98031.34;;;5.94;100.00
17260;BME280;8746;49.230;9.220;2024-03-29T05:14:57;98042.88;;;5.90;100.00
17260;BME280;8746;49.230;9.220;2024-03-29T05:17:23;98020.94;;;5.93;100.00
17260;BME280;8746;49.230;9.220;2024-03-29T05:19:51;98009.53;;;5.94;100.00
17260;BME280;8746;49.230;9.220;2024-03-29T05:22:17;98016.38;;;5.97;100.00
17260;BME280;8746;49.230;9.220;2024-03-29T05:24:42;98015.41;;;5.99;100.00
17260;BME280;8746;49.230;9.220;2024-03-29T05:27:07;98000.25;;;6.06;100.00
17260;BME280;8746;49.230;9.220;2024-03-29T05:29:33;97990.69;;;6.05;100.00
17260;BME280;8746;49.230;9.220;2024-03-29T05:31:58;97977.19;;;6.13;100.00
17260;BME280;8746;49.230;9.220;2024-03-29T05:34:23;97962.66;;;6.07;100.00
17260;BME280;8746;49.230;9.220;2024-03-29T05:36:49;97977.75;;;6.02;100.00
17260;BME280;8746;49.230;9.220;2024-03-29T05:39:15;97977.03;;;5.98;100.00
17260;BME280;8746;49.230;9.220;2024-03-29T05:41:40;97976.69;;;6.06;100.00
17260;BME280;8746;49.230;9.220;2024-03-29T05:44:06;97981.31;;;6.01;100.00
17260;BME280;8746;49.230;9.220;2024-03-29T05:46:31;97973.19;;;6.05;100.00
17260;BME280;8746;49.230;9.220;2024-03-29T05:48:57;97961.56;;;6.11;100.00
17260;BME280;8746;49.230;9.220;2024-03-29T05:51:22;97962.50;;;6.10;100.00
17260;BME280;8746;49.230;9.220;2024-03-29T05:53:47;97980.34;;;6.19;100.00
17260;BME280;8746;49.230;9.220;2024-03-29T05:56:12;97980.00;;;6.25;100.00
17260;BME280;8746;49.230;9.220;2024-03-29T05:58:38;97982.19;;;6.33;100.00
17260;BME280;8746;49.230;9.220;2024-03-29T06:01:03;97990.56;;;6.40;100.00
17260;BME280;8746;49.230;9.220;2024-03-29T06:03:29;97984.56;;;6.54;100.00
17260;BME280;8746;49.230;9.220;2024-03-29T06:05:55;97991.31;;;6.58;100.00
17260;BME280;8746;49.230;9.220;2024-03-29T06:08:20;98005.19;;;6.44;100.00
17260;BME280;8746;49.230;9.220;2024-03-29T06:10:46;97982.19;;;6.49;100.00
17260;BME280;8746;49.230;9.220;2024-03-29T06:13:12;97977.22;;;6.61;100.00
17260;BME280;8746;49.230;9.220;2024-03-29T06:15:53;98023.44;;;6.62;100.00
17260;BME280;8746;49.230;9.220;2024-03-29T06:18:37;98029.63;;;6.61;100.00
17260;BME280;8746;49.230;9.220;2024-03-29T06:21:02;98022.84;;;6.56;100.00
17260;BME280;8746;49.230;9.220;2024-03-29T06:23:28;98018.03;;;6.65;100.00
17260;BME280;8746;49.230;9.220;2024-03-29T06:25:53;97996.50;;;6.60;100.00
17260;BME280;8746;49.230;9.220;2024-03-29T06:28:19;98000.97;;;6.57;100.00
17260;BME280;8746;49.230;9.220;2024-03-29T06:30:44;97984.91;;;6.64;100.00
17260;BME280;8746;49.230;9.220;2024-03-29T06:33:09;98015.41;;;6.65;100.00
17260;BME280;8746;49.230;9.220;2024-03-29T06:35:35;98037.16;;;6.67;100.00
17260;BME280;8746;49.230;9.220;2024-03-29T06:38:00;98047.97;;;6.77;100.00
17260;BME280;8746;49.230;9.220;2024-03-29T06:40:25;98046.34;;;6.74;100.00
17260;BME280;8746;49.230;9.220;2024-03-29T06:42:51;98041.38;;;6.85;100.00
17260;BME280;8746;49.230;9.220;2024-03-29T06:45:16;98038.22;;;6.95;100.00
17260;BME280;8746;49.230;9.220;2024-03-29T06:47:41;98037.03;;;7.00;100.00
17260;BME280;8746;49.230;9.220;2024-03-29T06:50:07;98034.50;;;6.99;100.00
17260;BME280;8746;49.230;9.220;2024-03-29T06:52:33;98029.66;;;7.07;100.00
17260;BME280;8746;49.230;9.220;2024-03-29T06:54:58;98011.97;;;7.11;100.00
17260;BME280;8746;49.230;9.220;2024-03-29T06:57:23;98031.34;;;7.08;100.00
17260;BME280;8746;49.230;9.220;2024-03-29T06:59:51;98032.28;;;7.07;100.00
17260;BME280;8746;49.230;9.220;2024-03-29T07:02:17;98030.84;;;7.17;100.00
17260;BME280;8746;49.230;9.220;2024-03-29T07:04:42;98035.22;;;7.33;100.00
17260;BME280;8746;49.230;9.220;2024-03-29T07:07:07;98032.31;;;7.37;100.00
17260;BME280;8746;49.230;9.220;2024-03-29T07:09:33;98019.59;;;7.46;100.00
17260;BME280;8746;49.230;9.220;2024-03-29T07:11:58;98006.09;;;7.52;100.00
17260;BME280;8746;49.230;9.220;2024-03-29T07:14:24;98002.84;;;7.63;100.00
17260;BME280;8746;49.230;9.220;2024-03-29T07:16:51;98020.13;;;7.81;100.00
17260;BME280;8746;49.230;9.220;2024-03-29T07:19:17;98016.19;;;7.89;100.00
17260;BME280;8746;49.230;9.220;2024-03-29T07:21:44;97985.84;;;7.84;100.00
17260;BME280;8746;49.230;9.220;2024-03-29T07:24:09;97997.66;;;7.92;100.00
17260;BME280;8746;49.230;9.220;2024-03-29T07:26:36;98009.16;;;8.03;100.00
17260;BME280;8746;49.230;9.220;2024-03-29T07:29:02;97992.97;;;8.11;100.00
17260;BME280;8746;49.230;9.220;2024-03-29T07:31:30;97987.50;;;8.00;100.00
17260;BME280;8746;49.230;9.220;2024-03-29T07:33:55;98005.88;;;8.00;100.00
17260;BME280;8746;49.230;9.220;2024-03-29T07:36:21;98027.56;;;8.03;100.00
17260;BME280;8746;49.230;9.220;2024-03-29T07:38:48;98009.66;;;8.10;100.00
17260;BME280;8746;49.230;9.220;2024-03-29T07:41:13;98020.34;;;8.07;100.00
17260;BME280;8746;49.230;9.220;2024-03-29T07:43:59;98049.59;;;8.15;100.00
17260;BME280;8746;49.230;9.220;2024-03-29T07:46:31;98047.53;;;8.21;100.00
17260;BME280;8746;49.230;9.220;2024-03-29T07:48:57;98034.34;;;8.22;100.00
17260;BME280;8746;49.230;9.220;2024-03-29T07:51:22;98043.81;;;8.25;100.00
17260;BME280;8746;49.230;9.220;2024-03-29T07:53:48;98046.44;;;8.25;100.00
17260;BME280;8746;49.230;9.220;2024-03-29T07:56:13;98041.19;;;8.25;100.00
17260;BME280;8746;49.230;9.220;2024-03-29T07:58:38;98040.41;;;8.23;100.00
17260;BME280;8746;49.230;9.220;2024-03-29T08:01:04;98047.53;;;8.21;100.00
17260;BME280;8746;49.230;9.220;2024-03-29T08:03:29;98054.31;;;8.25;100.00
17260;BME280;8746;49.230;9.220;2024-03-29T08:06:00;98057.66;;;8.27;100.00
17260;BME280;8746;49.230;9.220;2024-03-29T08:08:32;98075.22;;;8.26;100.00
17260;BME280;8746;49.230;9.220;2024-03-29T08:10:58;98076.38;;;8.22;100.00
17260;BME280;8746;49.230;9.220;2024-03-29T08:13:25;98078.50;;;8.30;100.00
17260;BME280;8746;49.230;9.220;2024-03-29T08:16:00;98089.28;;;8.11;100.00
17260;BME280;8746;49.230;9.220;2024-03-29T08:18:27;98096.97;;;7.99;100.00
17260;BME280;8746;49.230;9.220;2024-03-29T08:20:52;98103.78;;;7.88;100.00
17260;BME280;8746;49.230;9.220;2024-03-29T08:23:23;98096.00;;;7.86;100.00
17260;BME280;8746;49.230;9.220;2024-03-29T08:25:48;98089.25;;;7.82;100.00
17260;BME280;8746;49.230;9.220;2024-03-29T08:28:15;98101.97;;;7.74;100.00
17260;BME280;8746;49.230;9.220;2024-03-29T08:30:40;98112.72;;;7.69;100.00
17260;BME280;8746;49.230;9.220;2024-03-29T08:33:05;98121.78;;;7.63;100.00
17260;BME280;8746;49.230;9.220;2024-03-29T08:35:33;98125.53;;;7.59;100.00
17260;BME280;8746;49.230;9.220;2024-03-29T08:38:00;98130.47;;;7.49;100.00
17260;BME280;8746;49.230;9.220;2024-03-29T08:40:28;98142.81;;;7.47;100.00
17260;BME280;8746;49.230;9.220;2024-03-29T08:42:55;98160.44;;;7.45;100.00
17260;BME280;8746;49.230;9.220;2024-03-29T08:45:20;98164.81;;;7.45;100.00
17260;BME280;8746;49.230;9.220;2024-03-29T08:47:46;98174.97;;;7.51;100.00
17260;BME280;8746;49.230;9.220;2024-03-29T08:50:11;98185.81;;;7.45;100.00
17260;BME280;8746;49.230;9.220;2024-03-29T08:52:38;98188.53;;;7.43;100.00
17260;BME280;8746;49.230;9.220;2024-03-29T08:55:05;98195.28;;;7.47;100.00
17260;BME280;8746;49.230;9.220;2024-03-29T08:57:31;98202.81;;;7.53;100.00
17260;BME280;8746;49.230;9.220;2024-03-29T08:59:58;98194.19;;;7.51;100.00
17260;BME280;8746;49.230;9.220;2024-03-29T09:02:24;98194.94;;;7.53;100.00
17260;BME280;8746;49.230;9.220;2024-03-29T09:04:49;98190.47;;;7.56;100.00
17260;BME280;8746;49.230;9.220;2024-03-29T09:07:14;98190.81;;;7.49;100.00
17260;BME280;8746;49.230;9.220;2024-03-29T09:09:40;98195.28;;;7.47;100.00
17260;BME280;8746;49.230;9.220;2024-03-29T09:12:07;98205.28;;;7.41;100.00
17260;BME280;8746;49.230;9.220;2024-03-29T09:14:33;98204.94;;;7.47;100.00
17260;BME280;8746;49.230;9.220;2024-03-29T09:16:58;98210.53;;;7.57;100.00
17260;BME280;8746;49.230;9.220;2024-03-29T09:19:24;98210.38;;;7.60;100.00
17260;BME280;8746;49.230;9.220;2024-03-29T09:21:50;98213.00;;;7.60;100.00
17260;BME280;8746;49.230;9.220;2024-03-29T09:24:15;98221.50;;;7.63;100.00
17260;BME280;8746;49.230;9.220;2024-03-29T09:26:42;98212.56;;;7.67;100.00
17260;BME280;8746;49.230;9.220;2024-03-29T09:29:08;98210.06;;;7.80;100.00
17260;BME280;8746;49.230;9.220;2024-03-29T09:31:34;98213.88;;;7.91;100.00
17260;BME280;8746;49.230;9.220;2024-03-29T09:33:59;98214.34;;;7.97;100.00
17260;BME280;8746;49.230;9.220;2024-03-29T09:36:25;98214.69;;;8.07;100.00
17260;BME280;8746;49.230;9.220;2024-03-29T09:38:51;98204.84;;;8.11;100.00
17260;BME280;8746;49.230;9.220;2024-03-29T09:41:17;98207.03;;;8.18;100.00
17260;BME280;8746;49.230;9.220;2024-03-29T09:43:45;98199.94;;;8.35;100.00
17260;BME280;8746;49.230;9.220;2024-03-29T09:46:11;98199.41;;;8.44;100.00
17260;BME280;8746;49.230;9.220;2024-03-29T09:48:39;98210.31;;;8.53;100.00
17260;BME280;8746;49.230;9.220;2024-03-29T09:51:06;98193.53;;;8.55;100.00
17260;BME280;8746;49.230;9.220;2024-03-29T09:53:34;98206.97;;;8.65;100.00
17260;BME280;8746;49.230;9.220;2024-03-29T09:56:03;98208.25;;;8.72;100.00
17260;BME280;8746;49.230;9.220;2024-03-29T09:58:29;98206.28;;;8.76;100.00
17260;BME280;8746;49.230;9.220;2024-03-29T10:00:55;98203.00;;;8.72;100.00
17260;BME280;8746;49.230;9.220;2024-03-29T10:03:23;98197.94;;;8.69;100.00
17260;BME280;8746;49.230;9.220;2024-03-29T10:05:49;98192.16;;;8.78;100.00
17260;BME280;8746;49.230;9.220;2024-03-29T10:08:15;98181.03;;;8.88;100.00
17260;BME280;8746;49.230;9.220;2024-03-29T10:10:41;98189.03;;;9.01;100.00
17260;BME280;8746;49.230;9.220;2024-03-29T10:13:07;98185.53;;;9.14;100.00
17260;BME280;8746;49.230;9.220;2024-03-29T10:15:33;98181.19;;;9.28;100.00
17260;BME280;8746;49.230;9.220;2024-03-29T10:18:03;98178.38;;;9.31;100.00
17260;BME280;8746;49.230;9.220;2024-03-29T10:20:28;98159.75;;;9.34;100.00
17260;BME280;8746;49.230;9.220;2024-03-29T10:22:53;98163.13;;;9.36;100.00
17260;BME280;8746;49.230;9.220;2024-03-29T10:25:21;98158.81;;;9.35;100.00
17260;BME280;8746;49.230;9.220;2024-03-29T10:27:46;98146.09;;;9.42;100.00
17260;BME280;8746;49.230;9.220;2024-03-29T10:30:12;98154.69;;;9.31;100.00
17260;BME280;8746;49.230;9.220;2024-03-29T10:32:42;98143.13;;;9.34;100.00
17260;BME280;8746;49.230;9.220;2024-03-29T10:35:09;98138.91;;;9.31;100.00
17260;BME280;8746;49.230;9.220;2024-03-29T10:37:35;98140.03;;;9.27;100.00
17260;BME280;8746;49.230;9.220;2024-03-29T10:40:11;98121.44;;;9.30;100.00
17260;BME280;8746;49.230;9.220;2024-03-29T10:42:41;98125.53;;;9.34;100.00
17260;BME280;8746;49.230;9.220;2024-03-29T10:45:07;98137.88;;;9.34;100.00
17260;BME280;8746;49.230;9.220;2024-03-29T10:47:33;98145.44;;;9.38;100.00
17260;BME280;8746;49.230;9.220;2024-03-29T10:49:59;98144.50;;;9.39;100.00
17260;BME280;8746;49.230;9.220;2024-03-29T10:52:25;98150.53;;;9.41;100.00
17260;BME280;8746;49.230;9.220;2024-03-29T10:54:51;98145.78;;;9.46;100.00
17260;BME280;8746;49.230;9.220;2024-03-29T10:57:28;98142.13;;;9.49;100.00
17260;BME280;8746;49.230;9.220;2024-03-29T11:00:02;98130.47;;;9.53;100.00
17260;BME280;8746;49.230;9.220;2024-03-29T11:02:42;98115.50;;;9.54;100.00
17260;BME280;8746;49.230;9.220;2024-03-29T11:05:12;98109.66;;;9.76;100.00
17260;BME280;8746;49.230;9.220;2024-03-29T11:07:40;98101.94;;;10.26;100.00
17260;BME280;8746;49.230;9.220;2024-03-29T11:10:09;98104.47;;;10.66;100.00
17260;BME280;8746;49.230;9.220;2024-03-29T11:12:43;98100.63;;;10.96;100.00
17260;BME280;8746;49.230;9.220;2024-03-29T11:15:22;98110.75;;;11.27;100.00
17260;BME280;8746;49.230;9.220;2024-03-29T11:17:48;98091.44;;;11.86;100.00
17260;BME280;8746;49.230;9.220;2024-03-29T11:20:15;98095.06;;;12.89;100.00
17260;BME280;8746;49.230;9.220;2024-03-29T11:22:45;98079.50;;;13.18;100.00
17260;BME280;8746;49.230;9.220;2024-03-29T11:25:11;98082.56;;;12.91;100.00
17260;BME280;8746;49.230;9.220;2024-03-29T11:27:38;98084.84;;;12.27;100.00
17260;BME280;8746;49.230;9.220;2024-03-29T11:30:04;98083.53;;;12.33;100.00
17260;BME280;8746;49.230;9.220;2024-03-29T11:32:35;98078.69;;;12.04;100.00
17260;BME280;8746;49.230;9.220;2024-03-29T11:35:02;98081.88;;;11.96;100.00
17260;BME280;8746;49.230;9.220;2024-03-29T11:37:31;98078.03;;;11.89;100.00
17260;BME280;8746;49.230;9.220;2024-03-29T11:39:59;98070.53;;;11.83;100.00
17260;BME280;8746;49.230;9.220;2024-03-29T11:42:46;98067.06;;;11.82;100.00
17260;BME280;8746;49.230;9.220;2024-03-29T11:45:11;98059.88;;;11.96;100.00
17260;BME280;8746;49.230;9.220;2024-03-29T11:47:39;98068.47;;;11.99;100.00
17260;BME280;8746;49.230;9.220;2024-03-29T11:50:07;98071.47;;;12.06;100.00
17260;BME280;8746;49.230;9.220;2024-03-29T11:52:33;98073.44;;;11.91;100.00
17260;BME280;8746;49.230;9.220;2024-03-29T11:54:59;98071.31;;;11.96;100.00
17260;BME280;8746;49.230;9.220;2024-03-29T11:57:24;98077.13;;;12.01;100.00
17260;BME280;8746;49.230;9.220;2024-03-29T11:59:49;98088.34;;;11.92;100.00
17260;BME280;8746;49.230;9.220;2024-03-29T12:02:15;98082.63;;;11.98;100.00
17260;BME280;8746;49.230;9.220;2024-03-29T12:04:41;98098.69;;;11.95;100.00
17260;BME280;8746;49.230;9.220;2024-03-29T12:07:07;98110.06;;;11.84;100.00
17260;BME280;8746;49.230;9.220;2024-03-29T12:09:32;98101.81;;;11.89;100.00
17260;BME280;8746;49.230;9.220;2024-03-29T12:11:57;98107.38;;;11.73;100.00
17260;BME280;8746;49.230;9.220;2024-03-29T12:14:25;98096.94;;;11.83;100.00
17260;BME280;8746;49.230;9.220;2024-03-29T12:16:52;98107.09;;;11.89;100.00
17260;BME280;8746;49.230;9.220;2024-03-29T12:19:25;98107.63;;;12.06;100.00
17260;BME280;8746;49.230;9.220;2024-03-29T12:21:52;98096.13;;;12.18;100.00
17260;BME280;8746;49.230;9.220;2024-03-29T12:24:18;98115.44;;;12.07;100.00
17260;BME280;8746;49.230;9.220;2024-03-29T12:26:43;98122.19;;;12.11;100.00
17260;BME280;8746;49.230;9.220;2024-03-29T12:29:09;98120.84;;;12.06;100.00
17260;BME280;8746;49.230;9.220;2024-03-29T12:31:34;98135.63;;;12.08;100.00
17260;BME280;8746;49.230;9.220;2024-03-29T12:34:00;98140.84;;;12.21;100.00
17260;BME280;8746;49.230;9.220;2024-03-29T12:36:25;98148.94;;;12.42;100.00
17260;BME280;8746;49.230;9.220;2024-03-29T12:38:54;98156.72;;;12.32;100.00
17260;BME280;8746;49.230;9.220;2024-03-29T12:41:23;98155.28;;;12.28;100.00
17260;BME280;8746;49.230;9.220;2024-03-29T12:43:52;98167.75;;;12.26;100.00
17260;BME280;8746;49.230;9.220;2024-03-29T12:46:18;98168.22;;;12.20;100.00
17260;BME280;8746;49.230;9.220;2024-03-29T12:48:43;98158.22;;;12.12;100.00
17260;BME280;8746;49.230;9.220;2024-03-29T12:51:09;98179.94;;;12.05;100.00
17260;BME280;8746;49.230;9.220;2024-03-29T12:53:38;98182.09;;;11.99;100.00
17260;BME280;8746;49.230;9.220;2024-03-29T12:56:04;98192.47;;;11.90;100.00
17260;BME280;8746;49.230;9.220;2024-03-29T12:58:29;98192.31;;;11.80;100.00
17260;BME280;8746;49.230;9.220;2024-03-29T13:00:55;98163.81;;;11.72;100.00
17260;BME280;8746;49.230;9.220;2024-03-29T13:03:20;98181.59;;;11.57;100.00
17260;BME280;8746;49.230;9.220;2024-03-29T13:05:46;98159.19;;;11.63;100.00